• Join FlightAware (Why Join?)
  • Login
  • US Flag 
09:14AM EDT


 

Airport Tracker/Info


-or-


 

Live Flight TrackerFlight Track Log ✈ CES2279 ✈ 22-Jul-2013 ✈ ZLXN / XNN - ZLGM / GOQ

Flight Track Log - Related Links

Times and Time Zones

All times are in EDT time to prevent confusion due to time zone crossing. See the CES2279 flight status page for this flight to view local times or setup timezone preferences in your user account.

Time Position Orientation Groundspeed Altitude Reporting Facility
EDT Latitude Longitude Course Direction KTS MPH feet Rate Location/Type
07:08AM 36.5187 98.4084 271° West  Level Estimated
07:09AM 36.5165 98.2913 269° West  Level Estimated
07:10AM 36.5143 98.1741 269° West  Level Estimated
07:11AM 36.5120 98.0569 269° West  Level Estimated
07:12AM 36.5095 97.9397 269° West  Level Estimated
07:13AM 36.5069 97.8226 268° West  Level Estimated
07:14AM 36.5042 97.7054 268° West  Level Estimated
07:15AM 36.5014 97.5882 268° West  Level Estimated
07:16AM 36.4985 97.4711 268° West  Level Estimated
07:17AM 36.4954 97.3540 268° West  Level Estimated
07:18AM 36.4923 97.2369 268° West  Level Estimated
07:19AM 36.4890 97.1198 268° West  Level Estimated
07:20AM 36.4856 97.0026 268° West  Level Estimated
07:21AM 36.4822 96.8856 268° West  Level Estimated
07:22AM 36.4785 96.7685 268° West  Level Estimated
07:23AM 36.4748 96.6514 268° West  Level Estimated
07:24AM 36.4710 96.5343 268° West  Level Estimated
07:25AM 36.4670 96.4173 268° West  Level Estimated
07:26AM 36.4630 96.3003 268° West  Level Estimated
07:27AM 36.4588 96.1833 267° West  Level Estimated
07:28AM 36.4545 96.0662 267° West  Level Estimated
07:29AM 36.4501 95.9492 267° West  Level Estimated
07:30AM 36.4456 95.8323 267° West  Level Estimated
07:31AM 36.4409 95.7153 267° West  Level Estimated
07:32AM 36.4362 95.5984 267° West  Level Estimated
07:33AM 36.4313 95.4814 267° West  Level Estimated
07:34AM 36.4263 95.3645 267° West  Level Estimated
07:35AM 36.4212 95.2476 267° West  Level Estimated
07:36AM 36.4160 95.1307 267° West  Level Estimated
07:37AM 36.4107 95.0138 267° West  Level Estimated
07:38AM 36.4050 94.8910 267° West  Level Estimated
07:39AM 36.4000 94.7861 267° West  Level Estimated
07:40AM 36.4000 94.7861 90° East  Level Estimated
07:41AM 36.4000 94.7861 90° East  Level Estimated
07:42AM 36.4000 94.7861 90° East  Level Estimated
07:43AM 36.4000 94.7861 90° East  Level Estimated
07:44AM 36.4000 94.7861 90° East  Level Estimated
07:45AM 36.4000 94.7861 90° East  Level Estimated
07:46AM 36.4000 94.7861 90° East  Level Estimated
07:47AM 36.4000 94.7861 90° East  Level Estimated
07:48AM 36.4000 94.7861 90° East  Level Estimated
07:49AM 36.4000 94.7861 90° East  Level Estimated
07:50AM 36.4000 94.7861 90° East  Level Estimated
07:51AM 36.4000 94.7861 90° East  Level Estimated
07:52AM 36.4000 94.7861 90° East  Level Estimated